createdAt,value
2016-07-05T00:00:56.568Z,15.64
2016-07-05T00:01:57.779Z,15.61
2016-07-05T00:02:56.548Z,15.57
2016-07-05T00:03:57.156Z,15.57
2016-07-05T00:04:56.525Z,15.56
2016-07-05T00:05:56.517Z,15.61
2016-07-05T00:06:56.507Z,15.67
2016-07-05T00:07:56.491Z,15.59
2016-07-05T00:08:56.479Z,15.64
2016-07-05T00:09:56.469Z,15.54
2016-07-05T00:10:57.081Z,15.57
2016-07-05T00:11:56.429Z,15.56
2016-07-05T00:12:56.423Z,15.6
2016-07-05T00:13:57.025Z,15.59
2016-07-05T00:14:57.043Z,15.59
2016-07-05T00:15:56.397Z,15.57
2016-07-05T00:16:57.003Z,15.59
2016-07-05T00:17:56.369Z,15.6
2016-07-05T00:18:56.985Z,15.54
2016-07-05T00:19:56.958Z,15.61
2016-07-05T00:20:56.363Z,15.56
2016-07-05T00:21:56.317Z,15.64
2016-07-05T00:22:56.927Z,15.52
2016-07-05T00:23:56.919Z,15.49
2016-07-05T00:24:56.901Z,15.54
2016-07-05T00:25:56.274Z,15.52
2016-07-05T00:26:56.864Z,15.46
2016-07-05T00:27:56.244Z,15.51
2016-07-05T00:28:57.457Z,15.56
2016-07-05T00:29:56.817Z,15.48
2016-07-05T00:30:56.827Z,15.52
2016-07-05T00:31:56.207Z,15.57
2016-07-05T00:32:56.200Z,15.49
2016-07-05T00:33:57.403Z,15.42
2016-07-05T00:34:56.788Z,15.51
2016-07-05T00:35:56.770Z,15.42
2016-07-05T00:36:56.764Z,15.48
2016-07-05T00:37:56.139Z,15.51
2016-07-05T00:38:56.123Z,15.43
2016-07-05T00:39:56.115Z,15.46
2016-07-05T00:40:56.093Z,15.41
2016-07-05T00:41:56.702Z,15.49
2016-07-05T00:42:56.690Z,15.42
2016-07-05T00:43:56.042Z,15.48
2016-07-05T00:44:56.050Z,15.43
2016-07-05T00:45:56.653Z,15.46
2016-07-05T00:46:56.030Z,15.38
2016-07-05T00:47:56.631Z,15.41
2016-07-05T00:48:56.614Z,15.41
2016-07-05T00:49:55.991Z,15.41
2016-07-05T00:50:55.988Z,15.43
2016-07-05T00:51:55.966Z,15.36
2016-07-05T00:52:56.558Z,15.41
2016-07-05T00:53:56.535Z,15.39
2016-07-05T00:54:55.912Z,15.38
2016-07-05T00:55:56.557Z,15.35
2016-07-05T00:56:55.905Z,15.31
2016-07-05T00:57:56.508Z,15.3
2016-07-05T00:58:55.879Z,15.35
2016-07-05T00:59:56.482Z,15.33
2016-07-05T01:00:55.859Z,15.35
2016-07-05T01:01:55.841Z,15.3
2016-07-05T01:02:55.820Z,15.3
2016-07-05T01:03:55.803Z,15.35
2016-07-05T01:04:55.786Z,15.26
2016-07-05T01:05:55.772Z,15.23
2016-07-05T01:06:55.778Z,15.26
2016-07-05T01:07:55.769Z,15.3
2016-07-05T01:08:55.738Z,15.26
2016-07-05T01:09:55.725Z,15.19
2016-07-05T01:10:55.733Z,15.24
2016-07-05T01:11:55.718Z,15.27
2016-07-05T01:12:55.710Z,15.27
2016-07-05T01:13:55.691Z,15.31
2016-07-05T01:14:55.678Z,15.26
2016-07-05T01:15:55.672Z,15.21
2016-07-05T01:16:56.282Z,15.24
2016-07-05T01:17:55.650Z,15.3
2016-07-05T01:18:55.637Z,15.24
2016-07-05T01:19:55.626Z,15.28
2016-07-05T01:20:56.225Z,15.26
2016-07-05T01:21:55.603Z,15.3
2016-07-05T01:22:55.587Z,15.27
2016-07-05T01:23:55.622Z,15.38
2016-07-05T01:24:56.788Z,15.39
2016-07-05T01:25:56.156Z,15.33
2016-07-05T01:26:56.148Z,15.36
2016-07-05T01:27:56.136Z,15.38
2016-07-05T01:28:55.517Z,15.36
2016-07-05T01:29:56.113Z,15.41
2016-07-05T01:30:55.480Z,15.33
2016-07-05T01:31:55.469Z,15.48
2016-07-05T01:32:55.455Z,15.48
2016-07-05T01:33:56.053Z,15.45
2016-07-05T01:34:56.046Z,15.49
2016-07-05T01:35:55.418Z,15.48
2016-07-05T01:36:56.642Z,15.51
2016-07-05T01:37:55.407Z,15.57
2016-07-05T01:38:56.000Z,15.49
2016-07-05T01:39:55.380Z,15.48
2016-07-05T01:40:55.969Z,15.52
2016-07-05T01:41:55.968Z,15.57
2016-07-05T01:42:55.344Z,15.54
2016-07-05T01:43:55.328Z,15.45
2016-07-05T01:44:55.310Z,15.49
2016-07-05T01:45:56.542Z,15.42
2016-07-05T01:46:55.905Z,15.45
2016-07-05T01:47:55.285Z,15.48
2016-07-05T01:48:55.887Z,15.41
2016-07-05T01:49:55.875Z,15.41
2016-07-05T01:50:55.249Z,15.41
2016-07-05T01:51:55.851Z,15.51
2016-07-05T01:52:55.272Z,15.41
2016-07-05T01:53:55.210Z,15.49
2016-07-05T01:54:56.426Z,15.43
2016-07-05T01:55:56.411Z,15.45
2016-07-05T01:56:55.788Z,15.46
2016-07-05T01:57:55.211Z,15.41
2016-07-05T01:58:55.767Z,15.42
2016-07-05T01:59:55.789Z,15.49
2016-07-05T02:00:55.374Z,15.52
2016-07-05T02:01:55.406Z,15.52
2016-07-05T02:02:55.162Z,15.49
2016-07-05T02:03:55.695Z,15.56
2016-07-05T02:04:55.690Z,15.54
2016-07-05T02:05:55.791Z,15.49
2016-07-05T02:06:55.337Z,15.56
2016-07-05T02:07:56.442Z,15.49
2016-07-05T02:08:55.644Z,15.56
2016-07-05T02:09:55.002Z,15.63
2016-07-05T02:10:55.611Z,15.61
2016-07-05T02:11:54.993Z,15.67
2016-07-05T02:12:55.591Z,15.7
2016-07-05T02:13:54.967Z,15.66
2016-07-05T02:14:55.163Z,15.68
2016-07-05T02:15:55.555Z,15.74
2016-07-05T02:16:54.931Z,15.68
2016-07-05T02:17:54.924Z,15.7
2016-07-05T02:18:55.524Z,15.85
2016-07-05T02:19:54.899Z,15.85
2016-07-05T02:20:54.887Z,15.82
2016-07-05T02:21:54.877Z,15.79
2016-07-05T02:22:55.478Z,15.84
2016-07-05T02:23:54.849Z,15.88
2016-07-05T02:24:54.837Z,15.81
2016-07-05T02:25:54.824Z,15.84
2016-07-05T02:26:54.810Z,15.93
2016-07-05T02:27:55.401Z,15.92
2016-07-05T02:28:54.777Z,15.94
2016-07-05T02:29:54.769Z,15.94
2016-07-05T02:30:54.754Z,15.92
2016-07-05T02:31:54.747Z,15.93
2016-07-05T02:32:55.351Z,15.99
2016-07-05T02:33:54.723Z,15.97
2016-07-05T02:34:54.708Z,16.03
2016-07-05T02:35:54.700Z,16.01
2016-07-05T02:36:54.684Z,16.04
2016-07-05T02:37:54.682Z,16.04
2016-07-05T02:38:54.662Z,16.04
2016-07-05T02:39:54.648Z,16.01
2016-07-05T02:40:55.262Z,16.16
2016-07-05T02:41:54.655Z,16.12
2016-07-05T02:42:55.275Z,16.14
2016-07-05T02:43:54.615Z,16.16
2016-07-05T02:44:54.598Z,16.15
2016-07-05T02:45:54.581Z,16.14
2016-07-05T02:46:55.180Z,16.11
2016-07-05T02:47:55.182Z,16.23
2016-07-05T02:48:54.608Z,16.18
2016-07-05T02:49:54.535Z,16.2
2016-07-05T02:50:55.138Z,16.2
2016-07-05T02:51:55.144Z,16.22
2016-07-05T02:52:55.121Z,16.26
2016-07-05T02:53:55.111Z,16.26
2016-07-05T02:54:54.497Z,16.3
2016-07-05T02:55:55.708Z,16.25
2016-07-05T02:56:54.446Z,16.35
2016-07-05T02:57:55.045Z,16.33
2016-07-05T02:58:54.421Z,16.3
2016-07-05T02:59:54.407Z,16.35
2016-07-05T03:00:54.402Z,16.26
2016-07-05T03:01:55.016Z,16.41
2016-07-05T03:02:55.018Z,16.42
2016-07-05T03:03:54.985Z,16.35
2016-07-05T03:04:54.985Z,16.35
2016-07-05T03:05:55.572Z,16.38
2016-07-05T03:06:54.963Z,16.37
2016-07-05T03:07:54.316Z,16.48
2016-07-05T03:08:54.938Z,16.41
2016-07-05T03:09:54.927Z,16.44
2016-07-05T03:10:55.528Z,16.52
2016-07-05T03:11:55.524Z,16.53
2016-07-05T03:12:54.898Z,16.45
2016-07-05T03:13:54.940Z,16.49
2016-07-05T03:14:54.275Z,16.5
2016-07-05T03:15:54.241Z,16.59
2016-07-05T03:16:54.848Z,16.65
2016-07-05T03:17:55.451Z,16.59
2016-07-05T03:18:54.203Z,16.65
2016-07-05T03:19:54.816Z,16.67
2016-07-05T03:20:54.206Z,16.75
2016-07-05T03:21:54.782Z,16.88
2016-07-05T03:22:54.175Z,16.8
2016-07-05T03:23:54.167Z,16.86
2016-07-05T03:24:54.760Z,16.8
2016-07-05T03:25:54.131Z,16.93
2016-07-05T03:26:54.725Z,16.85
2016-07-05T03:27:54.713Z,16.95
2016-07-05T03:28:54.100Z,16.92
2016-07-05T03:29:54.703Z,17.03
2016-07-05T03:30:54.070Z,17.07
2016-07-05T03:31:54.070Z,17.04
2016-07-05T03:32:54.057Z,17.03
2016-07-05T03:33:54.654Z,17.1
2016-07-05T03:34:54.632Z,17.13
2016-07-05T03:35:54.000Z,17.18
2016-07-05T03:36:54.003Z,17.2
2016-07-05T03:37:53.989Z,17.25
2016-07-05T03:38:54.600Z,17.2
2016-07-05T03:39:53.962Z,17.3
2016-07-05T03:40:55.172Z,17.29
2016-07-05T03:41:54.549Z,17.35
2016-07-05T03:42:54.536Z,17.32
2016-07-05T03:43:54.527Z,17.33
2016-07-05T03:44:54.517Z,17.29
2016-07-05T03:45:54.512Z,17.32
2016-07-05T03:46:53.868Z,17.36
2016-07-05T03:47:54.504Z,17.32
2016-07-05T03:48:55.085Z,17.38
2016-07-05T03:49:53.857Z,17.36
2016-07-05T03:50:54.459Z,17.38
2016-07-05T03:51:53.821Z,17.36
2016-07-05T03:52:54.423Z,17.36
2016-07-05T03:53:53.802Z,17.35
2016-07-05T03:54:53.801Z,17.38
2016-07-05T03:55:53.790Z,17.4
2016-07-05T03:56:54.392Z,17.36
2016-07-05T03:57:54.399Z,17.36
2016-07-05T03:58:54.415Z,17.4
2016-07-05T03:59:54.351Z,17.4
2016-07-05T04:00:54.346Z,17.36
2016-07-05T04:01:53.716Z,17.4
2016-07-05T04:02:54.326Z,17.48
2016-07-05T04:03:54.309Z,17.36
2016-07-05T04:04:53.699Z,17.38
2016-07-05T04:05:53.665Z,17.43
2016-07-05T04:06:53.649Z,17.47
2016-07-05T04:07:54.258Z,17.53
2016-07-05T04:08:53.647Z,17.53
2016-07-05T04:09:54.237Z,17.46
2016-07-05T04:10:53.630Z,17.48
2016-07-05T04:11:53.597Z,17.53
2016-07-05T04:12:54.210Z,17.53
2016-07-05T04:13:53.591Z,17.5
2016-07-05T04:14:53.778Z,17.51
2016-07-05T04:15:53.558Z,17.48
2016-07-05T04:16:53.551Z,17.44
2016-07-05T04:17:54.154Z,17.38
2016-07-05T04:18:53.533Z,17.48
2016-07-05T04:19:53.521Z,17.48
2016-07-05T04:20:53.510Z,17.5
2016-07-05T04:21:53.486Z,17.51
2016-07-05T04:22:54.104Z,17.43
2016-07-05T04:23:53.474Z,17.53
2016-07-05T04:24:54.700Z,17.47
2016-07-05T04:25:53.459Z,17.53
2016-07-05T04:26:54.058Z,17.53
2016-07-05T04:27:54.045Z,17.51
2016-07-05T04:28:54.091Z,17.59
2016-07-05T04:29:54.036Z,17.51
2016-07-05T04:30:54.012Z,17.51
2016-07-05T04:31:53.379Z,17.63
2016-07-05T04:32:53.980Z,17.54
2016-07-05T04:33:53.356Z,17.64
2016-07-05T04:34:53.344Z,17.59
2016-07-05T04:35:53.953Z,17.7
2016-07-05T04:36:53.331Z,17.62
2016-07-05T04:37:53.313Z,17.51
2016-07-05T04:38:53.315Z,17.62
2016-07-05T04:39:53.291Z,17.64
2016-07-05T04:40:53.271Z,17.62
2016-07-05T04:41:53.268Z,17.66
2016-07-05T04:42:53.919Z,17.67
2016-07-05T04:43:54.507Z,17.67
2016-07-05T04:44:53.240Z,17.69
2016-07-05T04:45:53.839Z,17.64
2016-07-05T04:46:53.212Z,17.66
2016-07-05T04:47:53.819Z,17.67
2016-07-05T04:48:53.184Z,17.79
2016-07-05T04:49:53.179Z,17.64
2016-07-05T04:50:53.164Z,17.71
2016-07-05T04:51:53.757Z,17.74
2016-07-05T04:52:53.136Z,17.64
2016-07-05T04:53:53.750Z,17.7
2016-07-05T04:54:54.361Z,17.78
2016-07-05T04:55:53.120Z,17.73
2016-07-05T04:56:53.720Z,17.79
2016-07-05T04:57:53.095Z,17.82
2016-07-05T04:58:53.091Z,17.79
2016-07-05T04:59:53.682Z,17.79
2016-07-05T05:00:53.066Z,17.84
2016-07-05T05:01:53.054Z,17.78
2016-07-05T05:02:53.091Z,17.81
2016-07-05T05:03:53.028Z,17.92
2016-07-05T05:04:53.016Z,17.79
2016-07-05T05:05:53.007Z,17.85
2016-07-05T05:06:52.985Z,17.82
2016-07-05T05:07:53.597Z,17.88
2016-07-05T05:08:52.972Z,17.87
2016-07-05T05:09:52.958Z,17.87
2016-07-05T05:10:52.953Z,17.82
2016-07-05T05:11:52.935Z,17.85
2016-07-05T05:12:53.540Z,17.84
2016-07-05T05:13:53.535Z,17.84
2016-07-05T05:14:53.516Z,17.87
2016-07-05T05:15:52.899Z,17.84
2016-07-05T05:16:52.882Z,17.84
2016-07-05T05:17:53.491Z,17.82
2016-07-05T05:18:52.862Z,17.76
2016-07-05T05:19:52.855Z,17.76
2016-07-05T05:20:53.460Z,17.73
2016-07-05T05:21:53.446Z,17.73
2016-07-05T05:22:53.427Z,17.73
2016-07-05T05:23:52.808Z,17.76
2016-07-05T05:24:53.410Z,17.74
2016-07-05T05:25:53.382Z,17.78
2016-07-05T05:26:54.010Z,17.62
2016-07-05T05:27:52.770Z,17.57
2016-07-05T05:28:52.756Z,17.64
2016-07-05T05:29:52.746Z,17.53
2016-07-05T05:30:52.738Z,17.55
2016-07-05T05:31:52.714Z,17.51
2016-07-05T05:32:53.325Z,17.54
2016-07-05T05:33:53.293Z,17.43
2016-07-05T05:34:53.297Z,17.48
2016-07-05T05:35:52.686Z,17.48
2016-07-05T05:36:53.281Z,17.54
2016-07-05T05:37:53.861Z,17.51
2016-07-05T05:38:52.684Z,17.57
2016-07-05T05:39:52.618Z,17.51
2016-07-05T05:40:53.236Z,17.51
2016-07-05T05:41:52.611Z,17.53
2016-07-05T05:42:53.205Z,17.54
2016-07-05T05:43:53.201Z,17.51
2016-07-05T05:44:52.584Z,17.48
2016-07-05T05:45:52.569Z,17.51
2016-07-05T05:46:53.163Z,17.55
2016-07-05T05:47:52.523Z,17.67
2016-07-05T05:48:53.152Z,17.57
2016-07-05T05:49:52.526Z,17.55
2016-07-05T05:50:52.508Z,17.71
2016-07-05T05:51:52.507Z,17.7
2016-07-05T05:52:53.100Z,17.71
2016-07-05T05:53:53.088Z,17.69
2016-07-05T05:54:52.471Z,17.74
2016-07-05T05:55:52.453Z,17.78
2016-07-05T05:56:52.449Z,17.76
2016-07-05T05:57:52.436Z,17.76
2016-07-05T05:58:52.423Z,17.82
2016-07-05T05:59:53.025Z,17.84
2016-07-05T06:00:52.394Z,17.87
2016-07-05T06:01:52.385Z,17.91
2016-07-05T06:02:52.379Z,17.89
2016-07-05T06:03:52.357Z,18.07
2016-07-05T06:04:52.978Z,18.07
2016-07-05T06:05:52.339Z,18.09
2016-07-05T06:06:52.952Z,18.06
2016-07-05T06:07:52.943Z,18.13
2016-07-05T06:08:52.929Z,18.17
2016-07-05T06:09:52.920Z,18.19
2016-07-05T06:10:52.282Z,18.18
2016-07-05T06:11:52.269Z,18.22
2016-07-05T06:12:52.272Z,18.27
2016-07-05T06:13:53.488Z,18.29
2016-07-05T06:14:52.441Z,18.4
2016-07-05T06:15:52.846Z,18.42
2016-07-05T06:16:52.219Z,18.55
2016-07-05T06:17:52.822Z,18.82
2016-07-05T06:18:52.201Z,19.14
2016-07-05T06:19:52.816Z,19.01
2016-07-05T06:20:52.799Z,18.86
2016-07-05T06:21:52.176Z,18.84
2016-07-05T06:22:52.167Z,18.79
2016-07-05T06:23:52.152Z,18.83
2016-07-05T06:24:53.368Z,18.82
2016-07-05T06:25:52.124Z,18.97
2016-07-05T06:26:52.126Z,19.24
2016-07-05T06:27:52.734Z,19.33
2016-07-05T06:28:53.345Z,19.32
2016-07-05T06:29:52.083Z,19.18
2016-07-05T06:30:52.748Z,19.2
2016-07-05T06:31:52.073Z,19.18
2016-07-05T06:32:52.059Z,19.28
2016-07-05T06:33:52.056Z,19.21
2016-07-05T06:34:52.038Z,19.1
2016-07-05T06:35:52.638Z,19.1
2016-07-05T06:36:52.024Z,19.01
2016-07-05T06:37:53.314Z,19.06
2016-07-05T06:38:52.602Z,19.1
2016-07-05T06:39:52.592Z,19.1
2016-07-05T06:40:52.580Z,19.1
2016-07-05T06:41:51.953Z,18.97
2016-07-05T06:42:52.565Z,18.95
2016-07-05T06:43:52.553Z,18.98
2016-07-05T06:44:51.938Z,18.98
2016-07-05T06:45:51.914Z,18.97
2016-07-05T06:46:51.902Z,18.82
2016-07-05T06:47:52.512Z,18.94
2016-07-05T06:48:52.504Z,18.92
2016-07-05T06:49:52.491Z,18.95
2016-07-05T06:50:51.863Z,18.99
2016-07-05T06:51:52.468Z,18.95
2016-07-05T06:52:52.464Z,18.97
2016-07-05T06:53:51.841Z,19.08
2016-07-05T06:54:52.440Z,19.01
2016-07-05T06:55:52.432Z,19.24
2016-07-05T06:56:51.823Z,19.35
2016-07-05T06:57:52.413Z,19.78
2016-07-05T06:58:52.397Z,20.27
2016-07-05T06:59:51.791Z,20.65
2016-07-05T07:00:52.386Z,20.49
2016-07-05T07:01:51.759Z,20.06
2016-07-05T07:02:52.426Z,20.1
2016-07-05T07:03:52.998Z,20.23
2016-07-05T07:04:52.384Z,20.59
2016-07-05T07:05:52.970Z,21.11
2016-07-05T07:06:52.357Z,21.34
2016-07-05T07:07:52.317Z,21.34
2016-07-05T07:08:52.301Z,21.16
2016-07-05T07:09:52.308Z,20.9
2016-07-05T07:10:51.678Z,20.74
2016-07-05T07:11:52.281Z,20.42
2016-07-05T07:12:51.667Z,20.42
2016-07-05T07:13:51.658Z,20.27
2016-07-05T07:14:51.637Z,20.27
2016-07-05T07:15:52.857Z,20.18
2016-07-05T07:16:52.238Z,20.08
2016-07-05T07:17:52.221Z,20.24
2016-07-05T07:18:51.617Z,20.39
2016-07-05T07:19:51.601Z,20.96
2016-07-05T07:20:51.578Z,21.53
2016-07-05T07:21:52.180Z,21.6
2016-07-05T07:22:52.225Z,21.71
2016-07-05T07:23:51.552Z,21.72
2016-07-05T07:24:51.542Z,21.74
2016-07-05T07:25:52.159Z,21.98
2016-07-05T07:26:52.144Z,21.81
2016-07-05T07:27:52.754Z,21.92
2016-07-05T07:28:51.514Z,22.1
2016-07-05T07:29:51.524Z,22.25
2016-07-05T07:30:52.120Z,22.25
2016-07-05T07:31:51.511Z,22.25
2016-07-05T07:32:51.491Z,22.9
2016-07-05T07:33:51.497Z,23.05
2016-07-05T07:34:52.168Z,23.24
2016-07-05T07:35:52.717Z,23.68
2016-07-05T07:36:52.096Z,23.12
2016-07-05T07:37:52.718Z,22.5
2016-07-05T07:38:51.486Z,22.09
2016-07-05T07:39:52.699Z,21.57
2016-07-05T07:40:52.072Z,21.32
2016-07-05T07:41:52.073Z,21.24
2016-07-05T07:42:52.067Z,20.93
2016-07-05T07:43:51.452Z,20.8
2016-07-05T07:44:51.441Z,20.79
2016-07-05T07:45:51.431Z,20.69
2016-07-05T07:46:52.646Z,20.53
2016-07-05T07:47:52.035Z,20.38
2016-07-05T07:48:51.401Z,20.33
2016-07-05T07:49:51.401Z,20.27
2016-07-05T07:50:51.997Z,20.24
2016-07-05T07:51:52.001Z,20.23
2016-07-05T07:52:51.982Z,20.13
2016-07-05T07:53:52.607Z,20.18
2016-07-05T07:54:51.345Z,20.06
2016-07-05T07:55:51.947Z,20.13
2016-07-05T07:56:51.345Z,20.09
2016-07-05T07:57:51.340Z,20.16
2016-07-05T07:58:51.945Z,20.2
2016-07-05T07:59:51.938Z,20.28
2016-07-05T08:00:51.317Z,20.25
2016-07-05T08:01:51.303Z,20.27
2016-07-05T08:02:51.910Z,20.3
2016-07-05T08:03:51.295Z,20.23
2016-07-05T08:04:51.904Z,20.2
2016-07-05T08:05:51.269Z,20.1
2016-07-05T08:06:51.265Z,20.08
2016-07-05T08:07:51.877Z,19.97
2016-07-05T08:08:51.867Z,19.97
2016-07-05T08:09:51.860Z,19.97
2016-07-05T08:10:51.854Z,19.91
2016-07-05T08:11:52.455Z,19.91
2016-07-05T08:12:51.217Z,20
2016-07-05T08:13:51.812Z,19.97
2016-07-05T08:14:51.410Z,19.97
2016-07-05T08:15:51.194Z,20.02
2016-07-05T08:16:51.185Z,19.93
2016-07-05T08:17:51.781Z,20.18
2016-07-05T08:18:51.166Z,20.28
2016-07-05T08:19:51.158Z,20.49
2016-07-05T08:20:51.766Z,20.58
2016-07-05T08:21:51.139Z,21.06
2016-07-05T08:22:51.131Z,21.23
2016-07-05T08:23:52.352Z,21.27
2016-07-05T08:24:51.715Z,21.3
2016-07-05T08:25:51.107Z,21.11
2016-07-05T08:26:51.104Z,20.99
2016-07-05T08:27:51.093Z,20.87
2016-07-05T08:28:51.698Z,20.84
2016-07-05T08:29:51.694Z,20.81
2016-07-05T08:30:51.676Z,20.8
2016-07-05T08:31:52.294Z,20.77
2016-07-05T08:32:51.670Z,20.68
2016-07-05T08:33:51.043Z,20.56
2016-07-05T08:34:51.049Z,20.58
2016-07-05T08:35:51.035Z,20.56
2016-07-05T08:36:51.639Z,20.38
2016-07-05T08:37:51.018Z,20.35
2016-07-05T08:38:51.623Z,20.41
2016-07-05T08:39:51.001Z,20.38
2016-07-05T08:40:50.986Z,20.5
2016-07-05T08:41:51.000Z,20.51
2016-07-05T08:42:51.593Z,20.53
2016-07-05T08:43:50.973Z,20.5
2016-07-05T08:44:52.171Z,20.56
2016-07-05T08:45:51.587Z,20.64
2016-07-05T08:46:52.170Z,20.49
2016-07-05T08:47:50.927Z,20.61
2016-07-05T08:48:51.554Z,20.5
2016-07-05T08:49:51.532Z,20.51
2016-07-05T08:50:51.516Z,20.42
2016-07-05T08:51:50.914Z,20.39
2016-07-05T08:52:50.919Z,20.42
2016-07-05T08:53:50.890Z,20.38
2016-07-05T08:54:51.482Z,20.41
2016-07-05T08:55:50.870Z,20.47
2016-07-05T08:56:51.489Z,20.41
2016-07-05T08:57:51.452Z,20.38
2016-07-05T08:58:50.839Z,20.21
2016-07-05T08:59:51.438Z,20.21
2016-07-05T09:00:51.461Z,20.1
2016-07-05T09:01:50.807Z,20.02
2016-07-05T09:02:51.412Z,20.02
2016-07-05T09:03:50.823Z,20
2016-07-05T09:04:50.817Z,19.94
2016-07-05T09:05:50.774Z,19.87
2016-07-05T09:06:51.387Z,19.79
2016-07-05T09:07:51.392Z,19.79
2016-07-05T09:08:50.821Z,19.8
2016-07-05T09:09:51.355Z,19.76
2016-07-05T09:10:50.723Z,19.7
2016-07-05T09:11:51.333Z,19.69
2016-07-05T09:12:51.321Z,19.61
2016-07-05T09:13:50.697Z,19.57
2016-07-05T09:14:51.310Z,19.48
2016-07-05T09:15:50.710Z,19.57
2016-07-05T09:16:50.668Z,19.55
2016-07-05T09:17:50.678Z,19.61
2016-07-05T09:18:51.923Z,19.63
2016-07-05T09:19:50.643Z,19.55
2016-07-05T09:20:50.629Z,19.7
2016-07-05T09:21:50.632Z,19.7
2016-07-05T09:22:51.227Z,19.66
2016-07-05T09:23:51.247Z,19.61
2016-07-05T09:24:50.593Z,19.65
2016-07-05T09:25:50.583Z,19.51
2016-07-05T09:26:50.582Z,19.57
2016-07-05T09:27:51.180Z,19.57
2016-07-05T09:28:50.561Z,19.57
2016-07-05T09:29:51.211Z,19.65
2016-07-05T09:30:51.150Z,19.63
2016-07-05T09:31:50.533Z,19.63
2016-07-05T09:32:50.534Z,19.65
2016-07-05T09:33:51.138Z,19.78
2016-07-05T09:34:50.511Z,19.75
2016-07-05T09:35:50.509Z,19.88
2016-07-05T09:36:51.104Z,19.84
2016-07-05T09:37:51.086Z,19.9
2016-07-05T09:38:51.085Z,19.75
2016-07-05T09:39:51.068Z,19.7
2016-07-05T09:40:50.449Z,19.54
2016-07-05T09:41:51.037Z,19.61
2016-07-05T09:42:50.428Z,19.54
2016-07-05T09:43:50.419Z,19.54
2016-07-05T09:44:50.407Z,19.54
2016-07-05T09:45:50.404Z,19.54
2016-07-05T09:46:51.010Z,19.4
2016-07-05T09:47:50.376Z,19.39
2016-07-05T09:48:50.377Z,19.38
2016-07-05T09:49:50.342Z,19.42
2016-07-05T09:50:50.964Z,19.39
2016-07-05T09:51:50.342Z,19.58
2016-07-05T09:52:50.336Z,19.51
2016-07-05T09:53:50.937Z,19.43
2016-07-05T09:54:50.935Z,19.42
2016-07-05T09:55:50.306Z,19.4
2016-07-05T09:56:50.295Z,19.4
2016-07-05T09:57:50.900Z,19.46
2016-07-05T09:58:50.889Z,19.46
2016-07-05T09:59:50.869Z,19.4
2016-07-05T10:00:50.240Z,19.4
2016-07-05T10:01:50.845Z,19.54
2016-07-05T10:02:50.858Z,19.54
2016-07-05T10:03:50.842Z,19.55
2016-07-05T10:04:50.838Z,19.61
2016-07-05T10:05:50.818Z,19.63
2016-07-05T10:06:50.816Z,19.57
2016-07-05T10:07:50.802Z,19.61
2016-07-05T10:08:51.408Z,19.68
2016-07-05T10:09:50.160Z,19.75
2016-07-05T10:10:50.163Z,19.87
2016-07-05T10:11:50.159Z,19.98
2016-07-05T10:12:50.134Z,20.09
2016-07-05T10:13:50.745Z,20.02
2016-07-05T10:14:50.938Z,20.1
2016-07-05T10:15:50.735Z,20.12
2016-07-05T10:16:50.109Z,19.97
2016-07-05T10:17:50.097Z,19.98
2016-07-05T10:18:50.691Z,19.98
2016-07-05T10:19:50.076Z,19.86
2016-07-05T10:20:50.686Z,19.87
2016-07-05T10:21:50.674Z,19.8
2016-07-05T10:22:50.664Z,19.75
2016-07-05T10:23:50.041Z,19.73
2016-07-05T10:24:50.653Z,19.8
2016-07-05T10:25:50.635Z,19.88
2016-07-05T10:26:50.631Z,19.95
2016-07-05T10:27:50.669Z,20.09
2016-07-05T10:28:50.616Z,20.24
2016-07-05T10:29:49.987Z,20.27
2016-07-05T10:30:50.589Z,20.34
2016-07-05T10:31:50.588Z,20.35
2016-07-05T10:32:49.962Z,20.31
2016-07-05T10:33:50.582Z,20.33
2016-07-05T10:34:49.948Z,20.3
2016-07-05T10:35:50.551Z,20.28
2016-07-05T10:36:50.545Z,20.31
2016-07-05T10:37:50.532Z,20.33
2016-07-05T10:38:49.907Z,20.34
2016-07-05T10:39:49.901Z,20.39
2016-07-05T10:40:50.563Z,20.35
2016-07-05T10:41:49.895Z,20.31
2016-07-05T10:42:49.882Z,20.3
2016-07-05T10:43:50.484Z,20.16
2016-07-05T10:44:50.473Z,20.12
2016-07-05T10:45:51.084Z,19.97
2016-07-05T10:46:49.846Z,20.02
2016-07-05T10:47:50.445Z,20.02
2016-07-05T10:48:50.436Z,19.98
2016-07-05T10:49:50.425Z,19.8
2016-07-05T10:50:49.807Z,19.78
2016-07-05T10:51:50.462Z,19.94
2016-07-05T10:52:49.790Z,19.93
2016-07-05T10:53:50.393Z,19.9
2016-07-05T10:54:49.768Z,19.86
2016-07-05T10:55:50.375Z,19.86
2016-07-05T10:56:49.753Z,19.8
2016-07-05T10:57:49.745Z,19.76
2016-07-05T10:58:50.342Z,19.63
2016-07-05T10:59:49.723Z,19.61
2016-07-05T11:00:50.325Z,19.6
2016-07-05T11:01:49.690Z,19.51
2016-07-05T11:02:50.292Z,19.54
2016-07-05T11:03:49.688Z,19.4
2016-07-05T11:04:49.680Z,19.39
2016-07-05T11:05:50.275Z,19.4
2016-07-05T11:06:49.659Z,19.39
2016-07-05T11:07:50.925Z,19.47
2016-07-05T11:08:49.636Z,19.54
2016-07-05T11:09:49.630Z,19.4
2016-07-05T11:10:50.226Z,19.4
2016-07-05T11:11:49.610Z,19.33
2016-07-05T11:12:50.216Z,19.33
2016-07-05T11:13:49.591Z,19.31
2016-07-05T11:14:49.575Z,19.32
2016-07-05T11:15:50.192Z,19.23
2016-07-05T11:16:50.176Z,19.17
2016-07-05T11:17:49.550Z,19.14
2016-07-05T11:18:50.153Z,19.24
2016-07-05T11:19:50.149Z,19.15
2016-07-05T11:20:50.135Z,19.18
2016-07-05T11:21:50.738Z,19.23
2016-07-05T11:22:49.503Z,19.33
2016-07-05T11:23:49.493Z,19.33
2016-07-05T11:24:49.466Z,19.31
2016-07-05T11:25:50.082Z,19.39
2016-07-05T11:26:50.686Z,19.33
2016-07-05T11:27:50.050Z,19.33
2016-07-05T11:28:50.665Z,19.33
2016-07-05T11:29:49.434Z,19.32
2016-07-05T11:30:49.422Z,19.29
2016-07-05T11:31:49.412Z,19.33
2016-07-05T11:32:49.404Z,19.38
2016-07-05T11:33:50.008Z,19.29
2016-07-05T11:34:49.389Z,19.36
2016-07-05T11:35:49.377Z,19.32
2016-07-05T11:36:49.980Z,19.18
2016-07-05T11:37:49.345Z,19.21
2016-07-05T11:38:49.345Z,19.15
2016-07-05T11:39:49.356Z,19.01
2016-07-05T11:40:49.340Z,19.05
2016-07-05T11:41:49.936Z,18.99
2016-07-05T11:42:49.923Z,18.99
2016-07-05T11:43:50.531Z,18.92
2016-07-05T11:44:49.903Z,18.87
2016-07-05T11:45:49.273Z,18.86
2016-07-05T11:46:49.266Z,18.83
2016-07-05T11:47:49.876Z,18.79
2016-07-05T11:48:50.471Z,18.65
2016-07-05T11:49:49.242Z,18.62
2016-07-05T11:50:49.226Z,18.46
2016-07-05T11:51:49.215Z,18.34
2016-07-05T11:52:49.819Z,18.17
2016-07-05T11:53:49.809Z,18.21
2016-07-05T11:54:49.177Z,17.95
2016-07-05T11:55:49.177Z,17.97
2016-07-05T11:56:49.174Z,17.84
2016-07-05T11:57:49.765Z,17.81
2016-07-05T11:58:49.757Z,17.64
2016-07-05T11:59:49.129Z,17.62
2016-07-05T12:00:49.740Z,17.64
2016-07-05T12:01:49.702Z,17.66
2016-07-05T12:02:49.100Z,17.73
2016-07-05T12:03:49.089Z,17.73
2016-07-05T12:04:49.088Z,17.73
2016-07-05T12:05:49.676Z,17.82
2016-07-05T12:06:49.669Z,17.91
2016-07-05T12:07:49.049Z,18
2016-07-05T12:08:49.032Z,18.12
2016-07-05T12:09:49.634Z,18.19
2016-07-05T12:10:49.625Z,18.28
2016-07-05T12:11:49.613Z,18.39
2016-07-05T12:12:48.995Z,18.49
2016-07-05T12:13:48.986Z,18.58
2016-07-05T12:14:50.198Z,18.68
2016-07-05T12:15:49.781Z,18.68
2016-07-05T12:16:48.951Z,18.76
2016-07-05T12:17:49.575Z,19.21
2016-07-05T12:18:49.554Z,19.43
2016-07-05T12:19:48.915Z,19.58
2016-07-05T12:20:49.531Z,19.93
2016-07-05T12:21:49.558Z,20.58
2016-07-05T12:22:49.507Z,20.95
2016-07-05T12:23:49.496Z,21.34
2016-07-05T12:24:50.105Z,21.35
2016-07-05T12:25:49.488Z,21.5
2016-07-05T12:26:48.885Z,21.63
2016-07-05T12:27:48.862Z,21.78
2016-07-05T12:28:48.849Z,22.06
2016-07-05T12:29:50.095Z,22.49
2016-07-05T12:30:50.060Z,22.47
2016-07-05T12:31:49.435Z,22.34
2016-07-05T12:32:49.445Z,22.23
2016-07-05T12:33:49.426Z,22.01
2016-07-05T12:34:50.048Z,21.91
2016-07-05T12:35:48.792Z,21.69
2016-07-05T12:36:48.789Z,21.63
2016-07-05T12:37:49.389Z,21.46
2016-07-05T12:38:48.773Z,21.26
2016-07-05T12:39:49.386Z,21.02
2016-07-05T12:40:48.749Z,20.8
2016-07-05T12:41:49.996Z,20.49
2016-07-05T12:42:49.362Z,20.25
2016-07-05T12:43:49.359Z,19.98
2016-07-05T12:44:48.747Z,19.84
2016-07-05T12:45:48.745Z,19.72
2016-07-05T12:46:49.347Z,19.63
2016-07-05T12:47:48.720Z,19.48
2016-07-05T12:48:49.343Z,19.46
2016-07-05T12:49:49.319Z,19.38
2016-07-05T12:50:48.708Z,19.33
2016-07-05T12:51:48.694Z,19.21
2016-07-05T12:52:48.696Z,19.06
2016-07-05T12:53:49.285Z,19.05
2016-07-05T12:54:48.666Z,19.11
2016-07-05T12:55:49.886Z,19.1